Terminal Aerodrome Forecast
Issued by NWS Wilmington, OH

Current Version | Previous Version | Text Only | Print | Product List | Glossary Off
Versions: 1 2 3 4 5 6 7 8 9 10 11 12 13 14 15 16 17 18 19 20 21 22 23 24

000
FTUS41 KILN 031100
TAFDAY
TAF
KDAY 031129Z 0312/0412 13006KT 6SM -FZRA OVC035
     FM031500 15011KT 5SM -FZRA OVC025
     FM031800 18012G20KT 5SM -SHRA BR SCT009 OVC025
     FM032200 24014G22KT 4SM -SHRA BR BKN009 OVC015
     FM040300 27012KT 5SM BR OVC012=

USA.gov is the U.S. government's official web portal to all federal, state and local government web resources and services.